Time;durP1;ratioP1;P1;durP2;ratioP2;P2;SDS_P1;SDS_P2;PMS_P1;PMS_P2;Temp;Humidity;BMP_temperature;BMP_pressure;BME280_temperature;BME280_humidity;BME280_pressure;Samples;Min_cycle;Max_cycle;Signal;HPM_P1;HPM_P2
2022/03/22 00:00:01;;;;;;;21.35;9.15;;;11.00;74.70;;;11.11;51.57;102488.97;5253457;22;20051;-85
2022/03/22 00:02:33;;;;;;;20.10;8.63;;;11.00;75.90;;;11.01;52.09;102487.50;5236003;23;20055;-72
2022/03/22 00:05:07;;;;;;;20.25;8.48;;;10.80;76.80;;;10.95;52.65;102492.34;5238328;28;20052;-72
2022/03/22 00:07:39;;;;;;;19.00;8.63;;;10.80;77.80;;;10.89;52.76;102492.00;5227360;28;20053;-72
2022/03/22 00:10:12;;;;;;;23.95;8.82;;;10.70;78.50;;;10.83;53.15;102494.25;5227390;28;20125;-72
2022/03/22 00:12:44;;;;;;;21.17;8.75;;;10.70;79.20;;;10.78;53.47;102495.66;5226802;28;20052;-72
2022/03/22 00:15:17;;;;;;;20.45;7.90;;;10.60;79.70;;;10.72;53.04;102497.91;5227624;28;20467;-72
2022/03/22 00:17:49;;;;;;;17.33;8.05;;;10.50;79.60;;;10.66;52.95;102497.50;5227389;28;20052;-72
2022/03/22 00:20:23;;;;;;;16.98;8.05;;;10.50;79.70;;;10.59;53.17;102497.13;5247077;28;20067;-72
2022/03/22 00:22:55;;;;;;;17.67;8.02;;;10.40;80.30;;;10.56;53.30;102491.75;5247721;28;20086;-72
2022/03/22 00:25:27;;;;;;;16.05;7.72;;;10.40;80.50;;;10.55;53.48;102489.91;5245182;28;20698;-72
2022/03/22 00:28:01;;;;;;;19.70;8.27;;;10.40;81.50;;;10.56;53.27;102494.34;5245938;28;20052;-72
2022/03/22 00:30:35;;;;;;;19.80;8.27;;;10.40;81.30;;;10.55;51.56;102495.13;5248114;28;20133;-72
2022/03/22 00:33:09;;;;;;;18.50;7.75;;;10.40;77.90;;;10.65;51.15;102500.94;5229850;28;20055;-72
2022/03/22 00:35:42;;;;;;;21.20;8.15;;;10.40;77.70;;;10.69;51.12;102497.69;5247656;28;20408;-72
2022/03/22 00:38:18;;;;;;;20.67;8.30;;;10.50;77.80;;;10.68;51.00;102503.72;5247719;28;20052;-72
2022/03/22 00:40:50;;;;;;;18.95;8.43;;;10.50;76.90;;;10.67;51.06;102501.91;5247384;28;20080;-72
2022/03/22 00:43:22;;;;;;;19.23;8.30;;;10.50;77.50;;;10.66;50.89;102503.63;5247857;28;20139;-72
2022/03/22 00:45:55;;;;;;;17.92;8.63;;;10.50;77.20;;;10.65;51.05;102506.16;5247743;28;20135;-72
2022/03/22 00:48:27;;;;;;;21.25;8.73;;;10.50;77.80;;;10.64;51.30;102504.34;5247231;28;20448;-72
2022/03/22 00:51:00;;;;;;;18.08;7.78;;;10.50;78.20;;;10.59;50.88;102502.34;5247585;28;20407;-72
2022/03/22 00:53:32;;;;;;;20.75;8.55;;;10.40;77.30;;;10.56;51.05;102504.78;5247844;28;20049;-72
2022/03/22 00:56:06;;;;;;;18.70;7.80;;;10.40;77.80;;;10.54;50.90;102501.16;5247404;28;20075;-72
2022/03/22 00:58:38;;;;;;;21.38;8.52;;;10.40;77.50;;;10.53;50.82;102501.97;5247419;28;20063;-72
2022/03/22 01:01:10;;;;;;;17.70;8.73;;;10.40;77.30;;;10.56;50.56;102504.78;5247826;28;20048;-72
2022/03/22 01:03:42;;;;;;;18.08;7.88;;;10.40;77.00;;;10.55;50.14;102502.97;5247067;28;20556;-72
2022/03/22 01:06:17;;;;;;;17.15;8.27;;;10.40;76.40;;;10.56;49.94;102496.97;5247368;28;20481;-72
2022/03/22 01:08:49;;;;;;;19.55;8.73;;;10.40;75.80;;;10.55;49.78;102500.34;5246700;28;20087;-72
2022/03/22 01:11:21;;;;;;;18.67;7.85;;;10.40;75.40;;;10.55;49.60;102495.13;5246878;28;20055;-72
2022/03/22 01:13:54;;;;;;;19.17;8.77;;;10.50;75.30;;;10.57;48.93;102496.16;5247290;28;20095;-72
2022/03/22 01:16:26;;;;;;;19.83;8.43;;;10.50;74.00;;;10.59;49.31;102496.25;5247090;28;20056;-72
2022/03/22 01:18:58;;;;;;;17.95;7.90;;;10.50;74.80;;;10.56;49.45;102496.97;5245574;28;20693;-72
2022/03/22 01:21:32;;;;;;;17.67;8.25;;;10.40;74.40;;;10.54;49.14;102497.66;5246529;28;20055;-72
2022/03/22 01:24:06;;;;;;;19.65;8.63;;;10.40;74.20;;;10.51;49.13;102487.94;5246845;28;20052;-72
2022/03/22 01:26:38;;;;;;;18.70;8.07;;;10.40;74.20;;;10.48;49.72;102495.56;5246603;28;20243;-72
2022/03/22 01:29:11;;;;;;;22.23;8.18;;;10.40;75.30;;;10.43;50.00;102497.00;5246943;28;20052;-72
2022/03/22 01:31:44;;;;;;;19.40;8.45;;;10.30;75.70;;;10.41;49.24;102492.50;5246765;28;20143;-72
2022/03/22 01:34:16;;;;;;;18.23;8.60;;;10.30;74.30;;;10.43;49.29;102493.47;5247371;28;20127;-72
2022/03/22 01:36:50;;;;;;;17.15;8.15;;;10.30;74.40;;;10.42;49.21;102494.28;5247094;28;20059;-72
2022/03/22 01:39:22;;;;;;;19.42;8.23;;;10.30;74.50;;;10.37;49.87;102483.59;5246208;28;20374;-71
2022/03/22 01:41:54;;;;;;;20.73;8.32;;;10.20;75.50;;;10.31;49.84;102484.09;5246893;28;20048;-72
2022/03/22 01:44:26;;;;;;;18.20;8.20;;;10.20;75.40;;;10.28;49.90;102485.59;5246742;28;20045;-72
2022/03/22 01:47:00;;;;;;;20.80;8.57;;;10.20;75.80;;;10.24;49.86;102483.63;5246228;28;20052;-72
2022/03/22 01:49:33;;;;;;;16.33;8.40;;;10.20;75.60;;;10.24;49.78;102481.03;5246614;28;20051;-72
2022/03/22 01:52:07;;;;;;;19.23;9.05;;;10.10;75.50;;;10.23;49.75;102481.81;5246694;28;20048;-72
2022/03/22 01:54:39;;;;;;;16.63;7.97;;;10.10;75.10;;;10.20;49.45;102473.78;5246806;28;20408;-72
2022/03/22 01:57:11;;;;;;;20.23;7.93;;;10.10;74.90;;;10.19;49.59;102479.78;5246342;28;20052;-72
2022/03/22 01:59:43;;;;;;;14.25;7.45;;;10.10;75.30;;;10.13;49.65;102474.19;5245916;28;20056;-72
2022/03/22 02:08:06;;;;;;;17.25;8.10;;;9.90;75.60;;;10.02;49.80;102474.41;5245911;28;20539;-72
2022/03/22 02:10:38;;;;;;;18.02;7.70;;;10.00;75.30;;;9.99;50.29;102479.44;5246401;28;20058;-72
2022/03/22 02:13:10;;;;;;;16.50;8.13;;;9.90;76.30;;;9.96;50.38;102473.09;5246237;28;20063;-72
2022/03/22 02:15:44;;;;;;;18.60;8.25;;;9.90;76.50;;;9.94;50.76;102475.63;5247512;28;20041;-72
2022/03/22 02:18:16;;;;;;;20.42;7.72;;;9.80;77.60;;;9.88;51.22;102480.44;5245944;28;20063;-72
2022/03/22 02:20:48;;;;;;;18.30;8.18;;;9.80;78.20;;;9.83;51.45;102476.63;5246098;28;20054;-72
2022/03/22 02:23:50;;;;;;;16.63;7.88;;;9.70;78.60;;;9.78;51.80;102478.97;5245985;28;20154;-72
2022/03/22 02:26:25;;;;;;;19.38;8.57;;;9.70;79.20;;;9.73;51.95;102474.25;5246322;28;20045;-72
2022/03/22 02:28:57;;;;;;;16.45;7.93;;;9.60;79.40;;;9.67;51.89;102479.06;5245540;28;20048;-72
2022/03/22 02:31:31;;;;;;;19.73;8.32;;;9.60;79.40;;;9.62;52.12;102476.16;5246132;28;20394;-72
2022/03/22 02:34:05;;;;;;;21.52;8.77;;;9.50;80.50;;;9.57;51.82;102471.44;5245891;28;20390;-72
2022/03/22 02:36:37;;;;;;;18.02;8.35;;;9.50;79.30;;;9.56;51.71;102474.84;5246574;28;20075;-72
2022/03/22 02:39:13;;;;;;;17.52;7.60;;;9.50;79.70;;;9.52;52.00;102473.75;5245549;28;20056;-72
2022/03/22 02:41:45;;;;;;;17.77;7.85;;;9.40;79.80;;;9.49;51.10;102468.34;5246669;28;20052;-72
2022/03/22 02:44:17;;;;;;;21.90;8.82;;;9.40;78.70;;;9.52;51.61;102471.16;5246022;28;20404;-72
2022/03/22 02:46:50;;;;;;;19.83;8.25;;;9.40;79.40;;;9.49;50.99;102463.13;5246086;28;20049;-72
2022/03/22 02:49:21;;;;;;;17.60;8.35;;;9.40;78.30;;;9.47;51.20;102463.03;5245159;28;20048;-72
2022/03/22 02:51:53;;;;;;;17.77;7.63;;;9.40;78.50;;;9.50;50.81;102470.13;5245983;28;20053;-72
2022/03/22 02:54:27;;;;;;;18.88;8.85;;;9.40;77.90;;;9.49;50.48;102466.63;5245780;28;20048;-72
2022/03/22 02:56:59;;;;;;;21.27;7.85;;;9.40;77.60;;;9.49;50.75;102464.03;5245537;28;20059;-71
2022/03/22 02:59:31;;;;;;;17.02;7.70;;;9.40;77.90;;;9.44;50.30;102465.41;5245537;28;20059;-72
2022/03/22 03:02:05;;;;;;;17.98;8.15;;;9.40;76.80;;;9.45;50.79;102472.47;5246118;28;20048;-72
2022/03/22 03:04:37;;;;;;;20.67;8.15;;;9.40;77.10;;;9.41;50.40;102475.66;5245597;28;20052;-72
2022/03/22 03:07:09;;;;;;;21.33;8.55;;;9.40;76.50;;;9.37;50.21;102471.03;5245397;28;20059;-72
2022/03/22 03:09:42;;;;;;;18.45;8.27;;;9.40;76.00;;;9.40;49.88;102473.84;5245507;28;20051;-72
2022/03/22 03:12:14;;;;;;;18.05;8.43;;;9.40;75.90;;;9.42;49.89;102468.72;5246045;28;20481;-72
2022/03/22 03:14:47;;;;;;;15.68;7.50;;;9.40;75.60;;;9.44;49.39;102464.53;5246053;28;20238;-72
2022/03/22 03:17:19;;;;;;;17.55;7.18;;;9.40;75.50;;;9.45;49.42;102472.47;5245286;28;20477;-72
2022/03/22 03:19:51;;;;;;;17.90;8.18;;;9.40;75.60;;;9.44;49.75;102469.72;5245403;28;20061;-72
2022/03/22 03:22:23;;;;;;;15.77;7.60;;;9.40;76.00;;;9.45;49.58;102472.47;5245543;28;20055;-72
2022/03/22 03:24:56;;;;;;;22.10;7.43;;;9.40;75.70;;;9.44;50.16;102478.44;5245821;28;20473;-72
2022/03/22 03:27:28;;;;;;;20.83;8.77;;;9.40;76.70;;;9.41;50.66;102487.75;5245344;28;20408;-72
2022/03/22 03:30:01;;;;;;;16.48;7.22;;;9.40;76.90;;;9.37;50.60;102480.53;5245501;28;20494;-72
2022/03/22 03:32:33;;;;;;;17.48;7.45;;;9.30;77.50;;;9.33;50.77;102476.84;5245284;28;20139;-72
2022/03/22 03:35:06;;;;;;;19.52;7.60;;;9.30;78.00;;;9.26;51.19;102482.44;5248320;28;20051;-72
2022/03/22 03:37:42;;;;;;;15.57;7.90;;;9.20;79.00;;;9.17;51.51;102474.00;5249155;28;20055;-72
2022/03/22 03:40:15;;;;;;;20.38;7.93;;;9.10;79.30;;;9.13;51.63;102479.81;5249178;28;20140;-72
2022/03/22 03:42:46;;;;;;;17.98;7.88;;;9.10;79.60;;;9.09;51.70;102481.31;5249173;28;20048;-72
2022/03/22 03:48:08;;;;;;;21.42;7.95;;;9.00;81.20;;;9.00;52.78;102479.75;5248733;28;20212;-72
2022/03/22 03:50:40;;;;;;;18.52;7.65;;;8.90;81.50;;;8.94;52.60;102483.78;5249310;28;20052;-72
2022/03/22 03:53:12;;;;;;;17.27;7.82;;;8.90;81.10;;;8.90;52.33;102499.97;5248958;28;20045;-72
2022/03/22 03:55:45;;;;;;;16.95;7.68;;;8.80;80.90;;;8.86;52.50;102490.13;5249224;28;20040;-72
2022/03/22 03:58:17;;;;;;;15.65;7.60;;;8.80;81.30;;;8.83;51.56;102491.63;5248455;28;20059;-72
2022/03/22 04:00:49;;;;;;;18.33;8.00;;;8.80;79.90;;;8.84;52.04;102494.34;5249012;28;20056;-72
2022/03/22 04:03:21;;;;;;;17.02;7.70;;;8.80;81.00;;;8.82;51.81;102495.94;5248806;28;20074;-72
2022/03/22 04:05:53;;;;;;;17.08;7.80;;;8.70;80.00;;;8.84;51.54;102498.63;5248757;28;20055;-72
2022/03/22 04:08:25;;;;;;;18.15;7.63;;;8.80;79.80;;;8.78;51.45;102503.41;5248571;28;20052;-72
2022/03/22 04:10:58;;;;;;;21.08;7.82;;;8.80;78.90;;;8.79;51.27;102500.00;5248772;28;20048;-72
2022/03/22 04:13:30;;;;;;;18.33;8.20;;;8.80;78.70;;;8.76;50.21;102500.72;5248790;28;20057;-72
2022/03/22 04:16:03;;;;;;;16.20;7.47;;;8.80;78.00;;;8.77;50.65;102501.63;5248704;28;20419;-72
2022/03/22 04:18:35;;;;;;;16.98;6.82;;;8.80;78.90;;;8.75;51.37;102504.13;5248277;28;20623;-72
2022/03/22 04:21:07;;;;;;;18.30;7.97;;;8.70;78.90;;;8.70;51.28;102500.28;5248733;28;20136;-72
2022/03/22 04:23:39;;;;;;;18.58;7.30;;;8.70;79.20;;;8.67;51.20;102502.66;5248697;28;20052;-72
2022/03/22 04:26:12;;;;;;;22.35;7.20;;;8.70;78.50;;;8.66;51.01;102499.16;5248388;28;20499;-72
2022/03/22 04:34:23;;;;;;;19.48;7.70;;;8.60;77.60;;;8.59;50.39;102504.72;5248369;28;20561;-72
2022/03/22 04:36:58;;;;;;;18.45;7.57;;;8.60;76.80;;;8.61;50.20;102507.47;5248094;28;20048;-72
2022/03/22 04:39:31;;;;;;;16.85;7.70;;;8.70;76.80;;;8.63;50.00;102508.47;5247817;28;20057;-72
2022/03/22 04:42:06;;;;;;;17.70;7.30;;;8.60;76.50;;;8.60;49.91;102505.63;5248055;28;20140;-71
2022/03/22 04:44:38;;;;;;;18.65;8.00;;;8.60;76.10;;;8.55;50.01;102502.72;5247827;28;20045;-71
2022/03/22 04:47:11;;;;;;;17.52;7.15;;;8.60;76.00;;;8.55;49.44;102509.63;5247577;28;20857;-72
2022/03/22 04:49:43;;;;;;;17.10;7.32;;;8.60;75.80;;;8.52;49.77;102504.19;5247873;28;20055;-71
2022/03/22 04:57:56;;;;;;;19.45;7.47;;;8.50;76.90;;;8.45;50.60;102513.25;5247330;28;20067;-71
2022/03/22 05:00:28;;;;;;;18.05;7.65;;;8.50;77.10;;;8.40;50.01;102519.81;5247493;28;20135;-72
2022/03/22 05:03:00;;;;;;;14.18;7.07;;;8.40;76.50;;;8.39;50.42;102520.63;5247760;28;20063;-72
2022/03/22 05:08:22;;;;;;;17.55;7.18;;;8.40;77.60;;;8.35;50.44;102523.78;5247169;28;20056;-71
2022/03/22 05:10:56;;;;;;;19.95;7.55;;;8.40;76.80;;;8.36;50.06;102533.41;5247755;28;20044;-71
2022/03/22 05:13:29;;;;;;;16.10;7.53;;;8.40;77.00;;;8.35;49.72;102527.31;5247797;28;20101;-71
2022/03/22 05:16:01;;;;;;;17.83;7.38;;;8.40;76.30;;;8.32;49.79;102531.34;5247287;28;20044;-72
2022/03/22 05:18:34;;;;;;;19.05;7.43;;;8.40;75.80;;;8.34;49.79;102535.84;5246844;28;20048;-72
2022/03/22 05:21:06;;;;;;;20.83;7.22;;;8.40;75.70;;;8.35;49.67;102531.56;5247249;28;20139;-72
2022/03/22 05:23:38;;;;;;;17.48;7.60;;;8.40;75.70;;;8.34;49.65;102530.66;5247654;28;20417;-72
2022/03/22 05:26:10;;;;;;;17.98;7.35;;;8.40;75.20;;;8.34;48.96;102541.03;5247289;28;20429;-72
2022/03/22 05:28:44;;;;;;;16.60;7.50;;;8.40;75.00;;;8.35;49.46;102545.50;5246647;28;20059;-72
2022/03/22 05:31:16;;;;;;;17.25;7.18;;;8.40;75.10;;;8.31;48.91;102543.44;5246853;28;20056;-72
2022/03/22 05:33:49;;;;;;;16.58;8.15;;;8.40;74.70;;;8.32;48.89;102542.63;5247284;28;20052;-72
2022/03/22 05:36:21;;;;;;;15.18;7.25;;;8.40;74.40;;;8.38;49.05;102552.59;5247265;28;20473;-72
2022/03/22 05:38:53;;;;;;;16.00;7.45;;;8.40;74.70;;;8.41;49.32;102547.63;5246359;28;20052;-71
2022/03/22 05:41:25;;;;;;;15.48;7.45;;;8.50;75.10;;;8.45;49.74;102551.34;5246970;28;20127;-71
2022/03/22 05:43:59;;;;;;;14.10;7.63;;;8.40;76.20;;;8.47;49.83;102547.16;5247137;28;20044;-72
2022/03/22 05:46:31;;;;;;;15.25;6.78;;;8.50;76.50;;;8.50;50.30;102552.59;5246718;28;20052;-72
2022/03/22 05:49:03;;;;;;;15.02;7.30;;;8.50;77.50;;;8.49;51.29;102550.78;5246534;28;20060;-72
2022/03/22 05:51:35;;;;;;;15.82;6.85;;;8.40;78.90;;;8.50;51.40;102552.59;5246972;28;20044;-72
2022/03/22 05:54:08;;;;;;;17.63;7.43;;;8.40;79.20;;;8.52;51.48;102556.19;5246720;28;20048;-72
2022/03/22 05:56:40;;;;;;;17.17;7.68;;;8.40;79.80;;;8.51;51.35;102557.88;5246059;28;20482;-71
2022/03/22 05:59:13;;;;;;;18.60;9.18;;;8.40;79.30;;;8.53;51.19;102555.38;5340925;22;20044;-72
2022/03/22 06:01:45;;;;;;;17.65;7.32;;;8.40;80.20;;;8.55;51.90;102561.63;5234453;28;20136;-71
2022/03/22 06:04:19;;;;;;;16.33;7.43;;;8.40;81.10;;;8.59;52.41;102553.22;5233150;28;20036;-72
2022/03/22 06:06:51;;;;;;;20.42;7.72;;;8.40;82.10;;;8.60;52.91;102560.22;5225679;28;20072;-70
2022/03/22 06:09:23;;;;;;;16.77;7.93;;;8.40;82.60;;;8.58;52.82;102562.72;5225158;28;20047;-70
2022/03/22 06:11:55;;;;;;;19.10;7.90;;;8.40;83.40;;;8.59;53.44;102568.81;5225479;28;20151;-71
2022/03/22 06:14:29;;;;;;;20.80;8.30;;;8.40;84.40;;;8.61;53.68;102573.34;5226502;28;20067;-70
2022/03/22 06:17:01;;;;;;;24.08;10.10;;;8.40;85.10;;;8.65;54.16;102569.25;5225864;28;20041;-69
2022/03/22 06:19:33;;;;;;;22.90;10.30;;;8.50;85.90;;;8.71;54.63;102572.28;5225820;28;20048;-70
2022/03/22 06:22:06;;;;;;;21.67;9.90;;;8.50;86.90;;;8.80;54.40;102580.75;5225593;28;20167;-69
2022/03/22 06:24:38;;;;;;;27.40;9.95;;;8.60;87.70;;;9.36;54.98;102569.84;5225684;28;20053;-70
2022/03/22 06:27:10;;;;;;;21.65;9.98;;;8.80;89.60;;;10.71;52.43;102571.75;5225171;28;20460;-70
2022/03/22 06:29:43;;;;;;;19.38;9.07;;;9.50;90.00;;;12.20;49.18;102566.72;5237709;28;20048;-71
2022/03/22 06:32:15;;;;;;;26.77;11.65;;;10.50;87.00;;;13.58;45.51;102573.31;5247962;28;20054;-72
2022/03/22 06:34:47;;;;;;;18.80;9.13;;;11.60;81.60;;;14.77;42.45;102572.94;5247103;28;20404;-71
2022/03/22 06:37:19;;;;;;;39.92;16.23;;;12.60;76.20;;;15.86;39.89;102578.63;5246695;28;20052;-71
2022/03/22 06:39:51;;;;;;;31.50;13.32;;;13.70;70.30;;;16.79;38.00;102573.53;5246761;28;20409;-71
2022/03/22 06:42:23;;;;;;;22.13;9.95;;;14.60;66.20;;;17.63;36.13;102582.72;5246554;28;20511;-72
2022/03/22 06:44:57;;;;;;;19.52;9.73;;;15.40;62.90;;;18.41;34.63;102589.69;5246712;28;20048;-72
2022/03/22 06:47:29;;;;;;;19.45;9.07;;;16.20;60.00;;;19.13;33.15;102583.94;5246358;28;20401;-72
2022/03/22 06:50:01;;;;;;;17.33;8.50;;;17.00;57.60;;;19.84;32.11;102589.38;5246734;28;20465;-72
2022/03/22 06:52:33;;;;;;;18.13;8.43;;;17.60;56.00;;;20.50;30.91;102582.16;5247014;28;20048;-71
2022/03/22 06:55:09;;;;;;;17.63;9.02;;;18.30;54.20;;;21.14;29.74;102587.91;5246642;28;20477;-71
2022/03/22 06:57:41;;;;;;;17.45;9.10;;;18.80;52.60;;;21.74;28.43;102583.72;5245935;28;20048;-72
2022/03/22 07:00:17;;;;;;;17.88;8.52;;;19.40;50.80;;;22.29;27.16;102585.50;5246017;28;20140;-69
2022/03/22 07:02:50;;;;;;;14.05;8.00;;;20.00;49.00;;;22.83;26.11;102589.81;5244801;28;20052;-70
2022/03/22 07:05:22;;;;;;;16.38;8.70;;;20.50;47.60;;;23.19;25.53;102591.13;5225240;28;20060;-68
2022/03/22 07:07:56;;;;;;;15.25;8.75;;;20.90;46.70;;;23.63;24.71;102604.03;5226020;28;20051;-70
2022/03/22 07:10:30;;;;;;;17.02;8.73;;;21.30;45.70;;;23.99;24.34;102601.69;5230488;28;20052;-68
2022/03/22 07:13:05;;;;;;;17.65;8.15;;;21.60;44.90;;;24.44;23.68;102602.91;5229854;28;20460;-70
2022/03/22 07:15:40;;;;;;;20.40;8.48;;;22.00;44.20;;;24.78;23.43;102600.44;5229670;28;20053;-69
2022/03/22 07:18:12;;;;;;;14.02;8.70;;;22.40;43.50;;;25.22;22.87;102600.59;5229169;28;20044;-68
2022/03/22 07:20:44;;;;;;;17.55;8.55;;;22.70;43.00;;;25.60;21.95;102603.34;5229165;28;20136;-69
2022/03/22 07:23:16;;;;;;;16.80;8.73;;;23.20;42.00;;;25.94;21.94;102608.72;5229662;28;20048;-69
2022/03/22 07:25:48;;;;;;;17.65;8.57;;;23.50;41.80;;;26.14;21.61;102604.25;5229220;28;20088;-70
2022/03/22 07:28:20;;;;;;;16.35;8.45;;;23.70;41.40;;;26.45;21.50;102613.16;5229002;28;20505;-69
2022/03/22 07:30:54;;;;;;;14.68;8.10;;;24.00;41.20;;;26.74;20.76;102615.75;5230204;28;20045;-70
2022/03/22 07:33:27;;;;;;;15.93;8.95;;;24.20;40.40;;;27.02;20.35;102602.25;5229200;28;20048;-71
2022/03/22 07:35:59;;;;;;;15.75;8.10;;;24.50;39.70;;;27.28;20.03;102611.06;5229128;28;20048;-70
2022/03/22 07:38:31;;;;;;;13.07;7.80;;;24.80;39.40;;;27.52;19.36;102611.81;5228455;28;20413;-68
2022/03/22 07:41:03;;;;;;;14.90;7.82;;;25.00;39.00;;;27.57;19.30;102612.63;5228657;28;20088;-69
2022/03/22 07:43:37;;;;;;;13.70;8.10;;;25.20;38.30;;;27.76;19.25;102608.94;5228909;28;20049;-66
2022/03/22 07:46:10;;;;;;;14.93;7.82;;;25.30;38.30;;;27.92;19.05;102600.78;5228717;28;20553;-66
2022/03/22 07:48:42;;;;;;;16.98;8.45;;;25.40;37.90;;;28.06;18.55;102607.78;5228576;28;20052;-66
2022/03/22 07:54:09;;;;;;;14.10;7.70;;;25.60;37.00;;;28.39;17.96;102600.34;5189434;28;20050;-67
2022/03/22 07:56:41;;;;;;;13.48;7.95;;;25.70;37.60;;;28.41;17.65;102600.31;5228712;28;20052;-66
2022/03/22 07:59:14;;;;;;;14.07;7.55;;;25.70;36.20;;;28.37;17.01;102602.16;5227607;28;20069;-65
2022/03/22 08:01:48;;;;;;;12.25;7.47;;;25.70;36.30;;;28.46;16.99;102596.69;5228264;28;20090;-66
2022/03/22 08:04:20;;;;;;;15.80;8.13;;;25.80;35.50;;;28.59;16.63;102610.84;5228492;28;20051;-66
2022/03/22 08:06:52;;;;;;;15.75;8.30;;;25.80;35.20;;;28.64;16.51;102609.00;5227819;28;20049;-64
2022/03/22 08:09:24;;;;;;;11.52;7.15;;;25.90;35.20;;;28.62;16.61;102608.09;5227794;28;20505;-65
2022/03/22 08:11:56;;;;;;;13.48;7.78;;;26.00;35.00;;;28.62;16.57;102613.47;5228028;28;20048;-65
2022/03/22 08:14:28;;;;;;;14.88;7.85;;;26.00;35.00;;;28.62;16.81;102609.00;5228154;28;20045;-67
2022/03/22 08:17:01;;;;;;;15.38;8.32;;;26.00;35.00;;;28.89;16.53;102613.16;5235595;28;20067;-65
2022/03/22 08:19:33;;;;;;;11.05;6.88;;;26.20;35.10;;;29.04;16.43;102606.72;5232260;28;20048;-65
2022/03/22 08:22:06;;;;;;;13.77;7.57;;;26.40;35.00;;;29.10;16.29;102613.81;5230404;28;20057;-65
2022/03/22 08:24:38;;;;;;;11.98;6.90;;;26.50;34.50;;;29.02;16.45;102610.34;5232020;28;20412;-66
2022/03/22 08:27:10;;;;;;;12.68;7.15;;;26.40;34.40;;;28.66;15.81;102604.50;5242313;28;20045;-66
2022/03/22 08:29:42;;;;;;;12.73;7.88;;;26.20;33.50;;;28.52;16.00;102614.50;5234141;28;20135;-65
2022/03/22 08:32:15;;;;;;;14.00;6.75;;;26.10;33.80;;;28.23;17.72;102606.72;5227766;28;20057;-67
2022/03/22 08:34:47;;;;;;;13.32;6.78;;;25.80;36.30;;;28.41;16.28;102600.31;5227639;28;20055;-65
2022/03/22 08:37:19;;;;;;;11.90;7.15;;;25.90;34.00;;;28.40;15.76;102596.75;5227265;28;20068;-65
2022/03/22 08:39:51;;;;;;;13.38;7.10;;;25.90;33.60;;;28.05;16.24;102603.34;5227236;28;20045;-65
2022/03/22 08:42:24;;;;;;;10.55;6.25;;;25.70;33.70;;;28.03;16.44;102594.41;5227523;28;20382;-67
2022/03/22 08:44:56;;;;;;;11.95;7.18;;;25.60;34.20;;;28.03;17.07;102599.75;5227818;28;20080;-68
2022/03/22 08:47:31;;;;;;;11.32;7.35;;;25.60;34.80;;;28.22;16.44;102603.16;5227145;28;20048;-66
2022/03/22 08:50:05;;;;;;;15.25;7.70;;;25.80;34.40;;;28.47;16.25;102593.09;5227158;28;20049;-58
2022/03/22 08:52:37;;;;;;;12.57;7.28;;;25.90;34.30;;;28.51;15.96;102594.84;5227049;28;20056;-68
2022/03/22 08:55:12;;;;;;;11.35;7.32;;;26.00;33.90;;;28.25;16.56;102600.47;5227285;28;20053;-69
2022/03/22 08:57:47;;;;;;;12.55;6.78;;;25.90;34.30;;;28.22;16.09;102594.22;5229235;28;20458;-68
2022/03/22 09:00:21;;;;;;;12.77;7.90;;;25.90;33.60;;;27.76;16.43;102600.00;5237882;28;20446;-63
2022/03/22 09:02:55;;;;;;;13.88;7.45;;;25.70;33.80;;;27.47;16.65;102597.53;5225842;28;20053;-67
2022/03/22 09:08:16;;;;;;;13.82;7.55;;;25.40;34.70;;;26.84;18.10;102586.28;5242273;28;20075;-71
2022/03/22 09:10:50;;;;;;;12.70;7.18;;;25.20;35.30;;;26.47;19.43;102583.72;5233939;28;20564;-66
2022/03/22 09:13:22;;;;;;;13.18;7.50;;;25.00;36.60;;;26.03;19.28;102576.69;5239794;28;20052;-65
2022/03/22 09:15:55;;;;;;;16.10;8.88;;;24.90;36.10;;;25.51;19.55;102578.44;5248003;28;20051;-63
2022/03/22 09:18:29;;;;;;;13.93;7.82;;;24.60;36.00;;;24.85;20.24;102581.81;5247973;28;20040;-66
2022/03/22 09:21:01;;;;;;;13.63;7.80;;;24.20;36.30;;;24.27;20.24;102573.47;5246509;28;20048;-65
2022/03/22 09:23:33;;;;;;;14.80;8.00;;;23.80;36.30;;;23.87;20.66;102580.31;5246699;28;20713;-67
2022/03/22 09:26:05;;;;;;;13.77;7.05;;;23.40;36.50;;;23.58;21.21;102572.00;5246442;28;20082;-66
2022/03/22 09:28:38;;;;;;;14.93;7.63;;;23.10;36.80;;;23.38;21.41;102570.94;5244833;28;20075;-67
2022/03/22 09:31:10;;;;;;;14.68;7.32;;;22.90;37.20;;;23.13;20.83;102565.34;5247707;28;20045;-67
2022/03/22 09:33:43;;;;;;;14.30;7.68;;;22.60;36.70;;;22.87;20.90;102557.09;5247934;28;20052;-67
2022/03/22 09:36:15;;;;;;;14.90;7.30;;;22.40;36.60;;;22.65;21.14;102565.66;5247651;28;20055;-68
2022/03/22 09:38:48;;;;;;;14.10;8.35;;;22.10;37.50;;;22.41;21.13;102561.78;5247446;28;20146;-67
2022/03/22 09:41:21;;;;;;;13.82;7.90;;;21.90;36.90;;;22.26;21.54;102561.56;5247508;28;20055;-68
2022/03/22 09:43:53;;;;;;;14.50;7.28;;;21.70;37.30;;;22.13;21.50;102559.59;5247550;28;20054;-66
2022/03/22 09:46:26;;;;;;;16.48;8.05;;;21.60;37.30;;;22.05;22.02;102556.81;5247722;28;20392;-65
2022/03/22 09:49:00;;;;;;;14.57;8.13;;;21.50;37.90;;;22.02;22.06;102555.84;5247474;28;20055;-66
2022/03/22 09:51:48;;;;;;;15.68;7.80;;;21.40;37.80;;;22.04;21.83;102564.72;5247249;28;20123;-68
2022/03/22 09:54:22;;;;;;;13.93;7.43;;;21.40;37.70;;;22.00;20.93;102552.28;5247474;28;20048;-66
2022/03/22 09:56:54;;;;;;;12.73;6.85;;;21.40;36.70;;;21.98;21.54;102548.72;5247573;28;20049;-67
2022/03/22 09:59:26;;;;;;;14.30;7.25;;;21.40;37.40;;;22.07;21.49;102554.16;5247270;28;20071;-66
2022/03/22 10:02:01;;;;;;;12.55;7.18;;;21.40;37.40;;;22.04;20.57;102551.44;5248111;28;20052;-67
2022/03/22 10:04:39;;;;;;;14.82;7.85;;;21.40;36.40;;;21.92;21.72;102550.41;5240217;28;20048;-67
2022/03/22 10:07:19;;;;;;;15.50;7.53;;;21.30;37.80;;;21.82;21.34;102537.84;5225480;28;20247;-68
2022/03/22 10:09:58;;;;;;;15.05;7.45;;;21.20;37.30;;;21.80;21.47;102539.59;5224641;28;20063;-62
2022/03/22 10:12:31;;;;;;;11.32;6.10;;;21.20;37.40;;;22.04;24.91;102535.50;5233228;28;20452;-62
2022/03/22 10:15:10;;;;;;;11.57;5.15;;;21.30;42.30;;;22.26;25.51;102529.69;5235343;28;20048;-62
2022/03/22 10:17:44;;;;;;;9.63;5.65;;;21.50;42.60;;;22.50;25.10;102528.25;5234641;28;20048;-59
2022/03/22 10:20:25;;;;;;;10.65;6.32;;;21.80;42.20;;;22.47;22.10;102529.97;5235489;28;20045;-62
2022/03/22 10:22:59;;;;;;;11.80;6.32;;;21.80;38.30;;;22.44;21.16;102521.97;5245015;28;20489;-61
2022/03/22 10:25:33;;;;;;;11.73;6.47;;;21.80;37.70;;;22.39;22.12;102528.09;5239744;28;20045;-59
2022/03/22 10:28:09;;;;;;;11.80;5.15;;;21.80;38.80;;;22.43;22.82;102522.84;5225489;28;20055;-63
2022/03/22 10:30:41;;;;;;;13.63;6.55;;;21.80;39.40;;;22.51;21.46;102519.41;5225735;28;20045;-65
2022/03/22 10:33:13;;;;;;;10.93;6.00;;;21.90;37.40;;;22.51;19.54;102514.09;5226474;28;20056;-66
2022/03/22 10:35:47;;;;;;;11.10;6.35;;;21.90;35.50;;;22.35;19.87;102512.97;5233472;28;20634;-64
2022/03/22 10:38:19;;;;;;;11.05;5.97;;;21.80;35.60;;;22.26;19.19;102513.75;5232622;28;20148;-65
2022/03/22 10:40:51;;;;;;;15.13;5.85;;;21.70;34.90;;;21.91;19.77;102505.25;5189306;28;20048;-66
2022/03/22 10:43:26;;;;;;;11.75;5.60;;;21.40;34.90;;;21.78;20.17;102503.25;5239567;28;20045;-65
2022/03/22 10:46:01;;;;;;;11.07;6.03;;;21.30;35.50;;;21.92;20.22;102502.63;5225426;28;20049;-64
2022/03/22 10:48:38;;;;;;;;;;;21.30;36.20;;;21.89;19.43;102501.66;5225135;28;20051;-63
2022/03/22 10:51:12;;;;;;;12.57;6.28;;;21.30;34.90;;;21.84;19.64;102508.66;5225474;28;19927;-64
2022/03/22 10:53:45;;;;;;;11.52;5.82;;;21.20;35.40;;;21.70;19.60;102503.13;5225706;28;20049;-67
2022/03/22 10:56:17;;;;;;;10.60;5.90;;;21.20;35.10;;;21.68;20.39;102496.94;5225648;28;20139;-65
2022/03/22 10:58:50;;;;;;;11.82;6.50;;;21.10;35.90;;;21.28;19.37;102488.31;5224932;28;20041;-65
2022/03/22 11:01:24;;;;;;;10.77;5.72;;;21.00;34.80;;;20.93;20.92;102494.66;5225236;28;20143;-66